Time;durP1;ratioP1;P1;durP2;ratioP2;P2;SDS_P1;SDS_P2;PMS_P1;PMS_P2;Temp;Humidity;BMP_temperature;BMP_pressure;BME280_temperature;BME280_humidity;BME280_pressure;Samples;Min_cycle;Max_cycle;Signal;HPM_P1;HPM_P2
2022/10/16 00:01:40;;;;;;;12.18;7.00;;;;;;;14.55;99.75;100682.66;6130821;23;20080;-72
2022/10/16 00:04:06;;;;;;;13.18;8.23;;;;;;;14.63;99.56;100673.53;6130794;23;20029;-72
2022/10/16 00:06:32;;;;;;;17.67;6.88;;;;;;;14.76;97.73;100676.44;6132465;23;20038;-72
2022/10/16 00:08:58;;;;;;;19.38;6.65;;;;;;;14.79;97.47;100683.38;6131747;23;19998;-72
2022/10/16 00:11:30;;;;;;;13.60;6.03;;;;;;;14.83;97.22;100674.63;6131249;23;20084;-72
2022/10/16 00:13:59;;;;;;;13.20;6.20;;;;;;;14.78;96.75;100682.53;6131495;23;20073;-72
2022/10/16 00:16:25;;;;;;;14.88;5.60;;;;;;;14.73;96.83;100690.44;6131355;23;20002;-72
2022/10/16 00:18:50;;;;;;;14.60;5.50;;;;;;;14.60;97.33;100690.25;6131468;23;20026;-73
2022/10/16 00:21:22;;;;;;;11.10;4.70;;;;;;;14.68;96.20;100687.44;6130151;23;20009;-72
2022/10/16 00:23:55;;;;;;;;;;;;;;;14.76;95.51;100687.34;6131497;23;20080;-73
2022/10/16 00:26:21;;;;;;;7.15;4.53;;;;;;;14.81;94.50;100682.16;6131289;23;19931;-72
2022/10/16 00:28:50;;;;;;;8.85;4.20;;;;;;;14.66;94.70;100695.78;6131815;23;20006;-73
2022/10/16 00:31:18;;;;;;;8.90;3.10;;;;;;;14.58;95.04;100693.16;6130818;23;20017;-72
2022/10/16 00:33:43;;;;;;;14.85;3.85;;;;;;;14.59;95.07;100688.56;6131243;23;20029;-72
2022/10/16 00:36:12;;;;;;;11.02;3.22;;;;;;;14.49;93.41;100690.75;6131119;23;20033;-72
2022/10/16 00:38:38;;;;;;;13.63;3.33;;;;;;;14.73;92.76;100687.69;6131068;23;20009;-72
2022/10/16 00:41:07;;;;;;;6.55;3.45;;;;;;;14.70;92.85;100701.72;6131349;23;20455;-72
2022/10/16 00:43:38;;;;;;;10.27;2.95;;;;;;;14.73;92.00;100706.78;6130963;23;20005;-72
2022/10/16 00:46:11;;;;;;;10.88;2.88;;;;;;;14.68;91.67;100695.63;6130746;23;20014;-72
2022/10/16 00:48:36;;;;;;;7.47;2.13;;;;;;;14.68;90.89;100702.97;6131627;23;20002;-71
2022/10/16 00:51:05;;;;;;;8.75;2.63;;;;;;;14.86;90.60;100706.94;6130585;23;20057;-72
2022/10/16 00:53:31;;;;;;;9.23;2.92;;;;;;;14.64;92.10;100705.19;6143273;23;20025;-71
2022/10/16 00:55:56;;;;;;;12.02;4.85;;;;;;;14.43;95.52;100711.38;6136483;23;20001;-72
2022/10/16 00:58:22;;;;;;;9.20;5.88;;;;;;;14.27;97.51;100712.38;6136198;23;20133;-72
2022/10/16 01:00:47;;;;;;;9.10;6.20;;;;;;;14.20;98.69;100706.00;6135463;23;20051;-71
2022/10/16 01:03:32;;;;;;;10.77;6.88;;;;;;;14.04;99.90;100711.63;6136113;23;20025;-72
2022/10/16 01:06:16;;;;;;;14.23;7.07;;;;;;;13.95;100.00;100713.53;6135451;23;20076;-72
2022/10/16 01:08:59;;;;;;;17.23;7.03;;;;;;;13.94;100.00;100716.47;6136293;23;20001;-72
2022/10/16 01:11:37;;;;;;;14.45;7.63;;;;;;;13.83;100.00;100710.44;6134749;23;20005;-72
2022/10/16 01:14:14;;;;;;;13.13;7.05;;;;;;;13.64;100.00;100707.38;6135045;23;20012;-72
2022/10/16 01:17:04;;;;;;;12.68;7.30;;;;;;;13.65;100.00;100718.06;6160742;23;20017;-72
2022/10/16 01:19:54;;;;;;;15.13;7.90;;;;;;;13.49;100.00;100719.03;6136528;23;20009;-72
2022/10/16 01:22:25;;;;;;;12.05;7.90;;;;;;;13.38;100.00;100715.91;6135474;23;20033;-72
2022/10/16 01:24:55;;;;;;;13.15;8.07;;;;;;;13.58;100.00;100733.44;6160595;23;20005;-73
2022/10/16 01:27:26;;;;;;;14.85;7.88;;;;;;;13.61;100.00;100727.63;6135640;23;20005;-72
2022/10/16 01:30:09;;;;;;;15.20;7.28;;;;;;;13.63;100.00;100731.03;6135718;23;19998;-72
2022/10/16 01:32:43;;;;;;;13.15;7.80;;;;;;;13.53;100.00;100733.13;6135628;23;20001;-72
2022/10/16 01:35:11;;;;;;;13.68;7.30;;;;;;;13.53;100.00;100735.84;6134874;23;20005;-72
2022/10/16 01:37:44;;;;;;;13.02;6.28;;;;;;;13.64;100.00;100738.16;6135156;23;20016;-72
2022/10/16 01:40:12;;;;;;;11.75;5.13;;;;;;;13.60;100.00;100731.38;6135992;23;20091;-72
2022/10/16 01:42:43;;;;;;;12.73;4.35;;;;;;;13.67;99.27;100732.31;6135505;23;20005;-72
2022/10/16 01:45:13;;;;;;;6.13;4.00;;;;;;;13.74;98.22;100733.28;6135585;23;20002;-72
2022/10/16 01:47:39;;;;;;;6.15;3.13;;;;;;;13.86;96.93;100731.00;6135928;23;20380;-71
2022/10/16 01:50:07;;;;;;;9.10;3.25;;;;;;;13.88;96.57;100728.06;6160100;23;20002;-71
2022/10/16 01:52:37;;;;;;;13.15;4.30;;;;;;;13.94;96.57;100727.34;6134337;23;19998;-72
2022/10/16 01:55:06;;;;;;;11.07;3.40;;;;;;;13.88;95.72;100722.63;6105979;23;20010;-71
2022/10/16 01:57:35;;;;;;;11.00;3.45;;;;;;;13.88;95.85;100723.47;6106591;23;20059;-72
2022/10/16 02:00:06;;;;;;;11.45;3.22;;;;;;;13.79;95.56;100733.59;6108456;23;20081;-71
2022/10/16 02:02:32;;;;;;;10.93;3.30;;;;;;;13.77;96.09;100724.78;6108308;23;20002;-72
2022/10/16 02:05:04;;;;;;;14.20;3.05;;;;;;;13.81;95.61;100733.41;6107617;23;20010;-71
2022/10/16 02:07:30;;;;;;;13.32;3.03;;;;;;;13.81;95.30;100722.53;6132866;23;20006;-72
2022/10/16 02:09:55;;;;;;;8.05;2.78;;;;;;;13.83;95.07;100737.66;6132488;23;20006;-71
2022/10/16 02:12:29;;;;;;;10.73;2.90;;;;;;;13.85;95.00;100732.03;6108159;23;19994;-72
2022/10/16 02:14:55;;;;;;;7.20;3.13;;;;;;;13.81;95.00;100739.69;6133304;23;20005;-71
2022/10/16 02:17:21;;;;;;;15.65;3.40;;;;;;;13.84;94.68;100728.47;6109314;23;20009;-72
2022/10/16 02:19:50;;;;;;;9.15;2.75;;;;;;;13.75;94.43;100728.69;6109082;23;20013;-71
2022/10/16 02:22:27;;;;;;;10.30;3.05;;;;;;;13.84;94.25;100728.47;6108695;23;20005;-71
2022/10/16 02:25:04;;;;;;;7.72;2.83;;;;;;;13.72;94.65;100729.91;6108583;23;20140;-71
2022/10/16 02:27:34;;;;;;;11.30;3.00;;;;;;;13.69;94.77;100737.59;6133682;23;20516;-71
2022/10/16 02:30:28;;;;;;;8.90;2.50;;;;;;;13.76;94.50;100739.41;6132402;23;20026;-71
2022/10/16 02:32:55;;;;;;;13.85;3.13;;;;;;;13.78;94.15;100739.22;6109242;23;20005;-71
2022/10/16 02:35:23;;;;;;;10.68;3.00;;;;;;;13.57;95.74;100731.75;6133481;23;20006;-71
2022/10/16 02:37:50;;;;;;;12.82;3.40;;;;;;;13.49;96.68;100750.81;6109083;23;20008;-71
2022/10/16 02:40:17;;;;;;;11.20;3.58;;;;;;;13.37;97.51;100738.69;6132388;23;20005;-71
2022/10/16 02:42:42;;;;;;;8.38;3.45;;;;;;;13.34;97.72;100741.75;6133250;23;20009;-72
2022/10/16 02:45:10;;;;;;;10.30;3.50;;;;;;;13.17;98.22;100730.94;6132827;23;20006;-70
2022/10/16 02:47:36;;;;;;;8.15;4.03;;;;;;;13.18;98.55;100727.19;6133529;23;20033;-70
2022/10/16 02:50:01;;;;;;;9.05;3.67;;;;;;;13.08;99.14;100731.16;6132955;23;20002;-71
2022/10/16 02:52:27;;;;;;;9.52;3.20;;;;;;;13.04;99.10;100730.69;6133377;23;20000;-71
2022/10/16 02:54:52;;;;;;;10.60;3.75;;;;;;;13.13;98.95;100732.31;6133190;23;20092;-71
2022/10/16 02:57:18;;;;;;;10.45;4.18;;;;;;;13.01;99.23;100747.34;6133171;23;20153;-71
2022/10/16 02:59:44;;;;;;;9.75;3.83;;;;;;;12.98;99.16;100747.69;6134700;23;20006;-71
2022/10/16 03:02:10;;;;;;;5.97;3.63;;;;;;;12.88;99.39;100738.91;6132829;23;20499;-71
2022/10/16 03:04:35;;;;;;;12.82;4.15;;;;;;;12.95;99.49;100748.88;6107991;23;19998;-71
2022/10/16 03:07:00;;;;;;;8.60;3.80;;;;;;;12.77;100.00;100743.69;6108085;23;20033;-71
2022/10/16 03:09:26;;;;;;;16.02;4.35;;;;;;;12.83;100.00;100738.56;6108505;23;20013;-71
2022/10/16 03:11:52;;;;;;;13.95;3.95;;;;;;;12.64;100.00;100743.38;6132777;23;20021;-71
2022/10/16 03:14:17;;;;;;;11.05;4.45;;;;;;;12.60;100.00;100739.34;6108686;23;20006;-71
2022/10/16 03:16:43;;;;;;;10.88;3.97;;;;;;;12.58;100.00;100730.50;6108176;23;20025;-71
2022/10/16 03:19:08;;;;;;;13.80;3.78;;;;;;;12.40;100.00;100729.91;6108731;23;20014;-71
2022/10/16 03:21:33;;;;;;;17.30;3.97;;;;;;;12.20;100.00;100738.44;6132697;23;20006;-71
2022/10/16 03:23:59;;;;;;;8.90;3.65;;;;;;;12.22;100.00;100733.66;6108804;23;20073;-72
2022/10/16 03:26:24;;;;;;;11.52;4.57;;;;;;;12.12;100.00;100733.00;6132567;23;20052;-72
2022/10/16 03:28:50;;;;;;;15.32;3.53;;;;;;;12.11;100.00;100742.16;6132762;23;20380;-71
2022/10/16 03:31:15;;;;;;;8.50;3.60;;;;;;;12.22;100.00;100744.53;6108462;23;20006;-71
2022/10/16 03:33:40;;;;;;;10.07;3.75;;;;;;;12.20;100.00;100737.59;6132761;23;20037;-71
2022/10/16 03:36:06;;;;;;;10.18;4.05;;;;;;;12.15;100.00;100739.97;6134425;23;20029;-71
2022/10/16 03:38:32;;;;;;;8.65;3.58;;;;;;;12.09;100.00;100741.50;6133269;23;20068;-71
2022/10/16 03:40:57;;;;;;;6.22;3.22;;;;;;;12.18;100.00;100745.88;6133868;23;20002;-71
2022/10/16 03:43:23;;;;;;;10.95;3.70;;;;;;;12.10;100.00;100754.03;6108153;23;20006;-71
2022/10/16 03:45:50;;;;;;;7.95;3.08;;;;;;;12.00;100.00;100750.66;6132958;23;20052;-71
2022/10/16 03:48:15;;;;;;;7.50;3.05;;;;;;;12.04;100.00;100749.28;6108686;23;20002;-71
2022/10/16 03:50:41;;;;;;;8.15;2.78;;;;;;;12.06;100.00;100757.25;6134302;23;20002;-71
2022/10/16 03:53:06;;;;;;;30.23;3.58;;;;;;;12.07;100.00;100757.09;6132695;23;20016;-71
2022/10/16 03:55:32;;;;;;;10.70;3.40;;;;;;;12.22;100.00;100760.81;6134001;23;20311;-71
2022/10/16 03:57:57;;;;;;;9.35;3.20;;;;;;;12.11;100.00;100749.44;6132317;23;20370;-71
2022/10/16 04:00:22;;;;;;;6.13;3.40;;;;;;;12.05;100.00;100748.28;6107862;23;20008;-71
2022/10/16 04:02:48;;;;;;;16.02;3.17;;;;;;;12.15;100.00;100751.66;6131983;23;20006;-71
2022/10/16 04:05:13;;;;;;;14.63;3.33;;;;;;;12.09;100.00;100752.34;6108025;23;20009;-71
2022/10/16 04:07:38;;;;;;;9.68;2.95;;;;;;;12.15;100.00;100757.09;6132411;23;20006;-72
2022/10/16 04:10:04;;;;;;;12.95;2.63;;;;;;;12.23;100.00;100765.22;6106764;23;20005;-71
2022/10/16 04:12:30;;;;;;;14.77;3.20;;;;;;;12.19;100.00;100761.16;6107289;23;20002;-72
2022/10/16 04:14:55;;;;;;;14.00;3.58;;;;;;;12.20;100.00;100781.88;6106718;23;20041;-72
2022/10/16 04:17:20;;;;;;;9.65;2.85;;;;;;;12.13;100.00;100780.00;6131717;23;20002;-72
2022/10/16 04:19:46;;;;;;;8.85;3.03;;;;;;;12.25;100.00;100780.47;6107258;23;20033;-73
2022/10/16 04:22:11;;;;;;;7.57;3.42;;;;;;;12.34;100.00;100787.63;6132684;23;20075;-72
2022/10/16 04:24:36;;;;;;;13.63;2.90;;;;;;;12.17;100.00;100787.63;6106843;23;20002;-72
2022/10/16 04:27:02;;;;;;;12.75;3.00;;;;;;;12.26;100.00;100785.75;6132775;23;20001;-71
2022/10/16 04:29:27;;;;;;;11.25;3.25;;;;;;;12.31;100.00;100799.66;6107125;23;20009;-72
2022/10/16 04:31:53;;;;;;;7.57;2.55;;;;;;;12.32;100.00;100795.06;6106505;23;20002;-72
2022/10/16 04:34:18;;;;;;;23.67;3.20;;;;;;;12.36;100.00;100791.00;6131242;23;20136;-72
2022/10/16 04:36:44;;;;;;;6.72;2.42;;;;;;;12.35;99.92;100794.72;6130928;23;20017;-71
2022/10/16 04:39:09;;;;;;;4.78;2.65;;;;;;;12.35;100.00;100790.16;6131639;23;20002;-71
2022/10/16 04:41:34;;;;;;;8.10;2.90;;;;;;;12.35;99.86;100798.28;6106544;23;20638;-71
2022/10/16 04:44:00;;;;;;;10.38;3.17;;;;;;;12.36;99.69;100801.84;6131206;23;20418;-71
2022/10/16 04:46:25;;;;;;;8.90;2.50;;;;;;;12.30;100.00;100802.53;6131006;23;20061;-71
2022/10/16 04:48:50;;;;;;;8.52;2.72;;;;;;;12.22;99.96;100806.97;6107407;23;20025;-71
2022/10/16 04:51:16;;;;;;;12.65;2.60;;;;;;;12.49;99.06;100807.59;6130654;23;20315;-71
2022/10/16 04:53:41;;;;;;;11.48;2.72;;;;;;;12.31;99.70;100804.22;6125878;23;20008;-71
2022/10/16 04:56:07;;;;;;;9.45;2.55;;;;;;;12.30;100.00;100807.97;6106964;23;20426;-71
2022/10/16 04:58:32;;;;;;;13.90;2.70;;;;;;;12.22;100.00;100806.97;6106540;23;20002;-71
2022/10/16 05:00:58;;;;;;;11.85;2.80;;;;;;;12.29;100.00;100811.72;6106408;23;20005;-71
2022/10/16 05:03:23;;;;;;;7.38;2.78;;;;;;;12.24;100.00;100809.50;6131325;23;20006;-71
2022/10/16 05:05:48;;;;;;;15.77;3.03;;;;;;;12.29;100.00;100806.28;6106755;23;20021;-71
2022/10/16 05:08:15;;;;;;;14.88;3.00;;;;;;;12.30;99.42;100819.66;6106606;23;20445;-71
2022/10/16 05:10:42;;;;;;;11.85;3.08;;;;;;;12.22;100.00;100822.41;6106707;23;20009;-71
2022/10/16 05:13:08;;;;;;;11.10;3.63;;;;;;;12.28;100.00;100820.88;6106908;23;20417;-71
2022/10/16 05:15:33;;;;;;;9.93;2.70;;;;;;;12.30;100.00;100830.53;6131052;23;20001;-71
2022/10/16 05:17:59;;;;;;;11.50;2.70;;;;;;;12.23;100.00;100824.09;6106750;23;20025;-71
2022/10/16 05:20:24;;;;;;;12.88;3.17;;;;;;;12.31;100.00;100831.38;6106609;23;19998;-72
2022/10/16 05:22:50;;;;;;;8.77;3.17;;;;;;;12.14;100.00;100842.25;6130993;23;20001;-72
2022/10/16 05:25:15;;;;;;;10.57;3.40;;;;;;;11.98;100.00;100842.22;6106505;23;20553;-72
2022/10/16 05:27:41;;;;;;;18.38;3.35;;;;;;;12.05;100.00;100837.81;6106650;23;20033;-71
2022/10/16 05:30:07;;;;;;;14.80;4.03;;;;;;;12.22;100.00;100836.81;6106171;23;20025;-72
2022/10/16 05:32:32;;;;;;;12.50;3.28;;;;;;;12.14;100.00;100833.25;6107469;23;20000;-72
2022/10/16 05:34:59;;;;;;;12.02;2.88;;;;;;;12.09;100.00;100833.75;6134424;23;20038;-72
2022/10/16 05:37:26;;;;;;;14.93;3.75;;;;;;;12.03;100.00;100842.56;6132784;23;20028;-72
2022/10/16 05:39:52;;;;;;;10.98;3.55;;;;;;;11.87;100.00;100845.28;6108501;23;20001;-71
2022/10/16 05:42:18;;;;;;;15.80;3.53;;;;;;;11.97;100.00;100845.97;6108389;23;20010;-71
2022/10/16 05:44:43;;;;;;;14.68;3.50;;;;;;;11.92;100.00;100853.75;6132659;23;20467;-72
2022/10/16 05:47:08;;;;;;;17.17;3.45;;;;;;;12.00;100.00;100842.94;6108174;23;20010;-72
2022/10/16 05:49:34;;;;;;;21.50;3.75;;;;;;;11.98;100.00;100853.09;6132726;23;20029;-72
2022/10/16 05:51:59;;;;;;;13.02;3.55;;;;;;;12.20;100.00;100841.59;6132853;23;20028;-72
2022/10/16 05:54:25;;;;;;;11.70;3.75;;;;;;;11.99;100.00;100838.50;6125650;23;20164;-71
2022/10/16 05:56:50;;;;;;;13.10;3.92;;;;;;;11.89;100.00;100838.66;6132729;23;20018;-71
2022/10/16 05:59:16;;;;;;;12.30;3.70;;;;;;;12.09;100.00;100828.34;6132764;23;20082;-71
2022/10/16 06:01:41;;;;;;;15.57;3.88;;;;;;;12.17;100.00;100852.75;6132737;23;20025;-72
2022/10/16 06:04:08;;;;;;;12.05;3.42;;;;;;;12.25;100.00;100853.78;6132607;23;20032;-72
2022/10/16 06:06:36;;;;;;;19.73;3.88;;;;;;;12.34;100.00;100858.22;6132138;23;20029;-72
2022/10/16 06:09:01;;;;;;;13.52;3.63;;;;;;;12.31;100.00;100853.09;6132897;23;20061;-72
2022/10/16 06:11:29;;;;;;;9.70;3.17;;;;;;;12.42;100.00;100860.91;6132155;23;20029;-72
2022/10/16 06:13:56;;;;;;;10.18;3.17;;;;;;;12.41;100.00;100865.50;6132840;23;19998;-72
2022/10/16 06:16:23;;;;;;;11.45;2.90;;;;;;;12.48;100.00;100865.66;6133704;23;20088;-72
2022/10/16 06:18:51;;;;;;;13.85;3.53;;;;;;;12.45;100.00;100860.56;6132923;23;20017;-71
2022/10/16 06:21:19;;;;;;;10.45;3.17;;;;;;;12.47;100.00;100863.97;6132271;23;20029;-71
2022/10/16 06:23:45;;;;;;;10.20;3.70;;;;;;;12.37;100.00;100863.28;6132675;23;20093;-71
2022/10/16 06:26:20;;;;;;;7.60;3.38;;;;;;;12.38;100.00;100859.53;6132330;23;20064;-71
2022/10/16 06:28:46;;;;;;;12.52;3.38;;;;;;;12.20;100.00;100867.88;6132584;23;20033;-72
2022/10/16 06:31:13;;;;;;;9.80;3.33;;;;;;;12.34;100.00;100874.50;6133607;23;20013;-72
2022/10/16 06:33:39;;;;;;;10.05;3.33;;;;;;;12.41;100.00;100870.06;6132792;23;20052;-72
2022/10/16 06:36:08;;;;;;;16.15;3.85;;;;;;;12.42;100.00;100878.03;6132567;23;20013;-73
2022/10/16 06:38:33;;;;;;;11.32;3.90;;;;;;;12.29;100.00;100879.56;6132344;23;20044;-72
2022/10/16 06:40:59;;;;;;;8.85;3.42;;;;;;;12.32;100.00;100881.94;6132636;23;20006;-72
2022/10/16 06:43:24;;;;;;;8.57;3.83;;;;;;;12.39;100.00;100888.41;6131716;23;20057;-72
2022/10/16 06:45:55;;;;;;;13.93;4.15;;;;;;;12.43;100.00;100878.91;6132026;23;20006;-72
2022/10/16 06:48:21;;;;;;;14.52;2.95;;;;;;;12.47;100.00;100885.69;6132209;23;20057;-72
2022/10/16 06:51:14;;;;;;;7.60;3.38;;;;;;;12.44;100.00;100877.88;6132103;23;20005;-73
2022/10/16 06:53:43;;;;;;;9.48;3.60;;;;;;;12.51;100.00;100887.03;6132125;23;20017;-72
2022/10/16 06:56:12;;;;;;;13.23;4.57;;;;;;;12.57;100.00;100899.94;6132575;23;19998;-73
2022/10/16 06:58:38;;;;;;;17.27;3.83;;;;;;;12.80;100.00;100912.84;6132267;23;20002;-73
2022/10/16 07:01:05;;;;;;;11.20;3.90;;;;;;;12.84;100.00;100914.16;6132324;23;20016;-72
2022/10/16 07:03:30;;;;;;;16.75;4.63;;;;;;;12.81;100.00;100906.38;6132209;23;20452;-72
2022/10/16 07:05:56;;;;;;;14.60;3.60;;;;;;;12.88;100.00;100915.53;6132675;23;20001;-72
2022/10/16 07:08:21;;;;;;;10.70;3.50;;;;;;;12.98;100.00;100908.06;6132942;23;19998;-71
2022/10/16 07:10:47;;;;;;;8.82;3.47;;;;;;;13.21;100.00;100916.34;6132049;23;20056;-72
2022/10/16 07:13:14;;;;;;;10.75;4.00;;;;;;;13.27;100.00;100921.91;6131715;23;19997;-72
2022/10/16 07:15:40;;;;;;;9.23;4.47;;;;;;;13.51;99.29;100929.16;6132027;23;20080;-72
2022/10/16 07:18:05;;;;;;;12.25;4.78;;;;;;;13.51;99.21;100922.88;6131472;23;20080;-72
2022/10/16 07:20:31;;;;;;;8.07;4.57;;;;;;;13.49;99.41;100941.22;6131943;23;20033;-72
2022/10/16 07:22:56;;;;;;;14.38;5.32;;;;;;;13.70;98.54;100927.91;6133135;23;20058;-72
2022/10/16 07:25:22;;;;;;;9.70;3.63;;;;;;;13.95;98.00;100930.47;6131846;23;20076;-73
2022/10/16 07:27:47;;;;;;;11.52;4.30;;;;;;;13.80;97.91;100938.53;6131817;23;20006;-71
2022/10/16 07:30:13;;;;;;;8.45;4.43;;;;;;;13.82;98.10;100934.63;6132111;23;20085;-72
2022/10/16 07:32:38;;;;;;;8.07;3.90;;;;;;;13.98;97.56;100951.91;6132020;23;20000;-72
2022/10/16 07:35:04;;;;;;;12.52;4.45;;;;;;;13.82;98.06;100940.09;6132018;23;20056;-71
2022/10/16 07:37:30;;;;;;;9.30;4.10;;;;;;;13.82;98.50;100948.25;6131931;23;20032;-72
2022/10/16 07:39:55;;;;;;;14.13;4.43;;;;;;;13.85;98.01;100958.75;6131879;23;20061;-72
2022/10/16 07:42:21;;;;;;;8.27;3.67;;;;;;;14.02;97.79;100955.97;6131553;23;20001;-72
2022/10/16 07:44:46;;;;;;;5.80;4.07;;;;;;;14.09;97.09;100956.94;6132110;23;20010;-72
2022/10/16 07:47:11;;;;;;;13.23;3.20;;;;;;;14.25;96.65;100965.00;6131586;23;20002;-72
2022/10/16 07:49:37;;;;;;;9.80;3.00;;;;;;;14.33;96.45;100962.22;6131932;23;20084;-72
2022/10/16 07:52:02;;;;;;;9.05;3.42;;;;;;;14.32;96.29;100971.44;6131391;23;20006;-72
2022/10/16 07:54:28;;;;;;;9.77;3.30;;;;;;;14.51;95.83;100963.84;6131119;23;20458;-72
2022/10/16 07:56:53;;;;;;;11.82;3.33;;;;;;;14.76;94.50;100967.22;6130940;23;20010;-73
2022/10/16 07:59:19;;;;;;;11.75;3.35;;;;;;;14.68;94.02;100970.88;6132389;23;20012;-73
2022/10/16 08:01:44;;;;;;;9.23;3.08;;;;;;;14.70;94.12;100979.69;6132035;23;20017;-73
2022/10/16 08:04:10;;;;;;;18.08;3.50;;;;;;;14.71;94.19;100975.94;6131664;23;20010;-73
2022/10/16 08:06:38;;;;;;;6.93;3.03;;;;;;;14.75;94.40;100982.72;6131599;23;20001;-74
2022/10/16 08:09:04;;;;;;;9.40;2.92;;;;;;;14.77;94.49;100964.31;6131400;23;20394;-75
2022/10/16 08:11:29;;;;;;;10.32;3.42;;;;;;;14.62;94.30;100971.59;6131156;23;20033;-74
2022/10/16 08:13:54;;;;;;;15.70;3.63;;;;;;;14.66;94.32;100981.09;6132120;23;19998;-74
2022/10/16 08:16:20;;;;;;;10.15;3.50;;;;;;;14.68;94.71;100987.22;6131550;23;20273;-72
2022/10/16 08:18:45;;;;;;;5.55;3.00;;;;;;;14.54;94.94;100979.81;6131286;23;20061;-73
2022/10/16 08:21:17;;;;;;;9.32;3.40;;;;;;;14.67;94.52;100993.72;6130443;23;20061;-73
2022/10/16 08:23:43;;;;;;;7.28;2.95;;;;;;;14.75;94.29;100993.63;6130287;23;20422;-74
2022/10/16 08:26:10;;;;;;;9.50;2.70;;;;;;;14.77;94.21;100990.72;6130392;23;20034;-73
2022/10/16 08:28:35;;;;;;;7.28;2.70;;;;;;;14.92;94.08;100995.19;6130587;23;20056;-74
2022/10/16 08:31:11;;;;;;;5.00;2.67;;;;;;;15.03;93.12;100990.31;6130506;23;20080;-73
2022/10/16 08:33:37;;;;;;;7.20;3.63;;;;;;;15.22;91.17;100997.13;6132147;23;20002;-74
2022/10/16 08:36:04;;;;;;;6.40;2.38;;;;;;;15.21;92.33;100999.03;6129838;23;19998;-73
2022/10/16 08:38:30;;;;;;;10.13;2.88;;;;;;;15.70;90.53;101001.25;6130483;23;20357;-74
2022/10/16 08:41:16;;;;;;;10.88;2.30;;;;;;;15.77;88.99;100994.00;6131812;23;20064;-74
2022/10/16 08:44:00;;;;;;;5.40;2.60;;;;;;;15.88;88.34;101001.72;6130806;23;20062;-75
2022/10/16 08:46:43;;;;;;;10.82;2.78;;;;;;;16.05;87.74;100998.78;6129966;23;20045;-74
2022/10/16 08:49:13;;;;;;;8.85;2.42;;;;;;;15.92;87.14;101003.03;6130728;23;20002;-74
2022/10/16 08:51:39;;;;;;;5.03;1.98;;;;;;;16.25;86.23;100997.13;6130595;23;20010;-74
2022/10/16 08:54:18;;;;;;;6.10;2.63;;;;;;;16.24;85.42;100995.44;6148819;23;20032;-74
2022/10/16 08:56:43;;;;;;;10.90;2.22;;;;;;;16.42;85.72;101008.66;6135284;23;20306;-73
2022/10/16 08:59:14;;;;;;;10.40;2.13;;;;;;;16.32;86.21;101008.97;6135514;23;20029;-73
2022/10/16 09:01:43;;;;;;;11.18;2.40;;;;;;;16.41;85.83;101024.22;6134494;23;20080;-74
2022/10/16 09:04:44;;;;;;;9.25;2.65;;;;;;;16.21;85.63;101017.66;6135605;23;20069;-74
2022/10/16 09:07:26;;;;;;;7.00;2.20;;;;;;;16.36;85.54;101021.19;6148181;23;20006;-75
2022/10/16 09:10:22;;;;;;;7.32;2.50;;;;;;;16.50;84.39;101023.06;6135466;23;20002;-75
2022/10/16 09:13:14;;;;;;;8.13;2.28;;;;;;;16.69;83.79;101037.13;6134904;23;20057;-74
2022/10/16 09:16:11;;;;;;;4.13;2.13;;;;;;;16.72;84.15;101039.50;6134758;23;20027;-74
2022/10/16 09:19:01;;;;;;;4.45;1.85;;;;;;;16.86;83.12;101033.13;6113371;23;20017;-74
2022/10/16 09:21:31;;;;;;;5.50;2.35;;;;;;;17.11;82.36;101027.25;6135407;23;20005;-74
2022/10/16 09:24:00;;;;;;;7.20;2.25;;;;;;;16.97;82.67;101039.97;6134980;23;19997;-75
2022/10/16 09:26:25;;;;;;;14.60;2.55;;;;;;;17.01;83.16;101031.16;6135156;23;20092;-75
2022/10/16 09:28:53;;;;;;;9.13;2.30;;;;;;;17.05;82.58;101043.41;6135273;23;20029;-74
2022/10/16 09:31:20;;;;;;;6.68;1.92;;;;;;;17.33;81.19;101046.16;6134907;23;20005;-74
2022/10/16 09:33:52;;;;;;;5.15;1.92;;;;;;;17.77;80.07;101041.47;6135029;23;20033;-74
2022/10/16 09:36:20;;;;;;;19.88;2.80;;;;;;;17.31;80.31;101052.91;6135085;23;20002;-77
2022/10/16 09:38:45;;;;;;;10.27;1.77;;;;;;;17.22;80.11;101065.03;6135238;23;20012;-73
2022/10/16 09:41:21;;;;;;;8.05;2.63;;;;;;;16.94;79.07;101068.56;6135067;23;20001;-73
2022/10/16 09:43:57;;;;;;;4.78;2.00;;;;;;;16.75;79.97;101047.31;6135598;23;20041;-75
2022/10/16 09:46:29;;;;;;;5.35;1.90;;;;;;;17.12;78.52;101083.66;6134887;23;20001;-75
2022/10/16 09:48:58;;;;;;;4.68;1.55;;;;;;;17.25;77.81;101048.22;6135540;23;20001;-74
2022/10/16 09:51:30;;;;;;;5.95;2.03;;;;;;;17.28;77.88;101054.16;6134458;23;20008;-74
2022/10/16 09:54:13;;;;;;;12.88;1.95;;;;;;;17.23;77.56;101061.25;6129607;23;20065;-74
2022/10/16 09:56:39;;;;;;;9.30;1.92;;;;;;;17.51;76.72;101058.53;6129998;23;20002;-74
2022/10/16 09:59:19;;;;;;;6.90;1.50;;;;;;;17.28;77.15;101058.78;6130479;23;20016;-74
2022/10/16 10:01:47;;;;;;;3.38;1.65;;;;;;;17.40;77.07;101070.84;6129714;23;20025;-77
2022/10/16 10:04:13;;;;;;;15.82;2.10;;;;;;;17.42;76.68;101082.47;6130067;23;20048;-74
2022/10/16 10:06:46;;;;;;;6.50;1.90;;;;;;;17.24;77.65;101084.84;6131428;23;20124;-74
2022/10/16 10:09:24;;;;;;;7.50;1.98;;;;;;;17.36;77.50;101091.47;6130417;23;20048;-74
2022/10/16 10:11:58;;;;;;;8.07;1.83;;;;;;;17.47;76.91;101090.91;6131277;23;20002;-74
2022/10/16 10:14:30;;;;;;;9.93;1.98;;;;;;;17.79;75.88;101086.75;6130095;23;20005;-74
2022/10/16 10:17:04;;;;;;;8.23;1.63;;;;;;;17.93;75.44;101090.47;6130522;23;20006;-74
2022/10/16 10:19:29;;;;;;;8.55;2.25;;;;;;;17.94;75.98;101103.13;6133582;23;20029;-74
2022/10/16 10:21:55;;;;;;;13.07;2.53;;;;;;;17.71;76.47;101124.41;6132505;23;19998;-74
2022/10/16 10:24:20;;;;;;;10.38;2.33;;;;;;;17.48;77.22;101113.69;6132484;23;20306;-75
2022/10/16 10:26:54;;;;;;;11.02;2.03;;;;;;;17.71;76.56;101102.47;6132086;23;20014;-75
2022/10/16 10:29:32;;;;;;;17.13;3.10;;;;;;;17.67;76.14;101117.59;6132853;23;20029;-74
2022/10/16 10:32:20;;;;;;;10.85;2.67;;;;;;;17.83;76.29;101096.28;6132046;23;20106;-75
2022/10/16 10:34:49;;;;;;;8.63;2.22;;;;;;;17.85;75.01;101098.81;6083419;23;20101;-73
2022/10/16 10:37:45;;;;;;;8.52;1.98;;;;;;;18.00;75.24;101102.31;6133051;23;20005;-73
2022/10/16 10:40:30;;;;;;;9.65;2.28;;;;;;;17.85;75.66;101104.31;6131601;23;20045;-74
2022/10/16 10:43:19;;;;;;;6.60;1.90;;;;;;;18.68;72.52;101106.03;6131246;23;20066;-73
2022/10/16 10:45:54;;;;;;;13.07;1.85;;;;;;;17.91;75.26;101125.41;6131051;23;20009;-73
2022/10/16 10:48:25;;;;;;;11.75;2.33;;;;;;;18.03;74.82;101112.84;6130555;23;20025;-74
2022/10/16 10:51:01;;;;;;;9.45;1.88;;;;;;;17.86;74.47;101106.00;6130635;23;20085;-74
2022/10/16 10:53:37;;;;;;;7.80;1.77;;;;;;;17.96;74.17;101106.50;6130106;23;20002;-74
2022/10/16 10:56:26;;;;;;;6.35;1.45;;;;;;;18.12;73.38;101111.63;6131330;23;20006;-74
2022/10/16 10:59:22;;;;;;;5.47;1.80;;;;;;;18.12;73.74;101128.06;6131167;23;20006;-73
2022/10/16 11:01:54;;;;;;;7.95;1.60;;;;;;;18.10;72.71;101124.69;6131325;23;20010;-73
2022/10/16 11:04:41;;;;;;;12.82;1.95;;;;;;;18.36;70.91;101114.94;6131224;23;20002;-75
2022/10/16 11:07:24;;;;;;;11.23;2.13;;;;;;;18.00;71.33;101123.38;6131719;23;20006;-74
2022/10/16 11:09:55;;;;;;;7.40;1.48;;;;;;;17.99;71.43;101127.16;6131724;23;20002;-74
2022/10/16 11:12:34;;;;;;;;;;;;;;;18.62;69.46;101112.31;6132241;23;20021;-74
2022/10/16 11:15:20;;;;;;;7.38;1.55;;;;;;;18.93;67.86;101116.44;6132390;23;19908;-74
2022/10/16 11:18:18;;;;;;;12.13;1.73;;;;;;;18.42;68.50;101111.38;6131783;23;20013;-74
2022/10/16 11:20:53;;;;;;;11.23;1.77;;;;;;;18.28;68.41;101145.25;6115657;23;20037;-74
2022/10/16 11:23:42;;;;;;;6.25;1.52;;;;;;;18.23;69.34;101150.50;6130796;23;20054;-74
2022/10/16 11:26:21;;;;;;;10.05;1.58;;;;;;;18.81;67.93;101126.31;6130941;23;20014;-74
2022/10/16 11:28:54;;;;;;;6.90;1.55;;;;;;;18.87;66.70;101139.22;6131860;23;20009;-75